Amaicha del Valle, Argentina
Current Conditions -  °F | °C
As of 3:00 AM on Wednesday 22 Oct 2014 (Local Time) from SANT Reporting Station
Clear Clear  
Wind Chill: 22°   Ceiling: Unl
Heat Index: 22°   Visibility: 5mi
Dew Point: 16°   Wind: 9mph
Humidity: 69%   Direction: 360°N
Pressure: 29.88"   Gusts: NA
Location:  26.73°S, 65.8°W
Report Text: SANT 220600Z 36008KT 8000 NSC 22/16 Q1012
Loading
Personal Weather Stations






























Interactive Weather Map
Tropical Storm Tracking
New forecast layout! Learn more

10-Day Weather Forecast

Advertisements
Track Severe Weather on mobile